Terminal Aerodrome Forecast
Issued by NWS

Home | Current Version | Previous Version | Text Only | Print | Product List | Glossary On
Versions: 1 2 3 4 5 6 7 8 9 10 11 12
000
FTUS46 KMTR 270500
TAFMRY
TAF
KMRY 270520Z 2706/2806 11004KT P6SM FEW250
     FM271900 29004KT P6SM FEW200
     FM280200 12004KT P6SM SKC=

USA.gov is the U.S. government's official web portal to all federal, state and local government web resources and services.